Knaresborough, United Kingdom
Current Conditions -  °F | °C
As of 10:50 AM on Wednesday 22 Oct 2014 (Local Time) from EGXD Reporting Station
Broken Clouds Broken Clouds  
Wind Chill: 55°   Ceiling: 12000
Heat Index: 55°   Visibility: 6mi
Dew Point: 45°   Wind: 9mph
Humidity: 67%   Direction: 290°WNW
Pressure: 30.15"   Gusts: NA
Location:  54.01°N, 1.47°W
Report Text: EGXD 220950Z 29008KT 9999 FEW023 SCT028 BKN120 13/07 Q1021 BLU NOSIG
Loading
Personal Weather Stations






























Interactive Weather Map
Tropical Storm Tracking
New forecast layout! Learn more

10-Day Weather Forecast

Advertisements
Track Severe Weather on mobile